Time;durP1;ratioP1;P1;durP2;ratioP2;P2;SDS_P1;SDS_P2;PMS_P1;PMS_P2;Temp;Humidity;BMP_temperature;BMP_pressure;BME280_temperature;BME280_humidity;BME280_pressure;Samples;Min_cycle;Max_cycle;Signal;HPM_P1;HPM_P2
2023/05/01 00:00:21;;;;;;;6.73;6.30;;;12.80;97.80;;;;;;10388217;28;20291;-82
2023/05/01 00:05:27;;;;;;;6.87;6.27;;;12.80;98.50;;;;;;10413300;28;20261;-82
2023/05/01 00:10:30;;;;;;;6.93;6.43;;;12.80;98.90;;;;;;10372844;28;20237;-81
2023/05/01 00:15:33;;;;;;;7.97;7.23;;;12.80;98.70;;;;;;10370314;28;20262;-82
2023/05/01 00:20:35;;;;;;;7.47;6.90;;;12.80;98.30;;;;;;10344603;28;20242;-80
2023/05/01 00:25:37;;;;;;;6.93;6.43;;;12.80;98.10;;;;;;10379951;28;20234;-81
2023/05/01 00:30:41;;;;;;;7.00;6.40;;;12.80;98.30;;;;;;10412095;28;20197;-81
2023/05/01 00:35:44;;;;;;;7.80;7.07;;;12.80;98.30;;;;;;10365910;28;20226;-82
2023/05/01 00:40:47;;;;;;;6.93;6.40;;;12.60;98.60;;;;;;10359745;28;20221;-82
2023/05/01 00:45:50;;;;;;;7.30;6.80;;;12.70;98.40;;;;;;10380577;28;20219;-82
2023/05/01 00:50:53;;;;;;;7.43;6.90;;;12.60;98.50;;;;;;10369199;28;20191;-81
2023/05/01 00:55:58;;;;;;;6.90;6.40;;;12.60;98.40;;;;;;10389718;28;20725;-81
2023/05/01 01:01:03;;;;;;;7.50;6.90;;;12.60;98.30;;;;;;10388267;28;20219;-81
2023/05/01 01:06:10;;;;;;;7.53;7.03;;;12.50;98.90;;;;;;10379128;28;20222;-82
2023/05/01 01:11:18;;;;;;;7.73;7.07;;;12.50;98.80;;;;;;10390581;28;20190;-81
2023/05/01 01:16:31;;;;;;;7.77;7.17;;;12.50;98.40;;;;;;10367878;28;20222;-82
2023/05/01 01:21:39;;;;;;;7.70;7.10;;;12.50;98.40;;;;;;10366612;28;20223;-82
2023/05/01 01:27:20;;;;;;;8.53;7.80;;;12.40;98.40;;;;;;10400831;28;20218;-81
2023/05/01 01:33:00;;;;;;;7.93;7.33;;;12.40;98.90;;;;;;10325657;28;20199;-80
2023/05/01 01:38:09;;;;;;;8.87;8.10;;;12.40;98.70;;;;;;10395558;28;20690;-80
2023/05/01 01:43:15;;;;;;;7.80;7.20;;;12.40;99.50;;;;;;10382629;28;20191;-82
2023/05/01 01:48:22;;;;;;;7.63;6.93;;;12.40;99.20;;;;;;10366273;28;20265;-81
2023/05/01 01:53:28;;;;;;;7.37;6.67;;;12.40;99.10;;;;;;10417862;28;20601;-80
2023/05/01 01:58:31;;;;;;;7.93;7.33;;;12.50;99.70;;;;;;10365256;28;20246;-81
2023/05/01 02:03:34;;;;;;;7.20;6.80;;;12.50;99.40;;;;;;10383207;28;20286;-79
2023/05/01 02:08:38;;;;;;;8.63;7.57;;;12.60;99.00;;;;;;10378406;28;20199;-79
2023/05/01 02:13:41;;;;;;;7.43;6.93;;;12.50;99.40;;;;;;10393898;28;20231;-80
2023/05/01 02:18:46;;;;;;;7.73;7.10;;;12.60;99.60;;;;;;10381350;28;20215;-80
2023/05/01 02:23:49;;;;;;;9.50;8.70;;;12.50;99.90;;;;;;10364103;28;20301;-80
2023/05/01 02:28:52;;;;;;;8.50;7.90;;;12.50;99.30;;;;;;10413631;28;20188;-80
2023/05/01 02:33:54;;;;;;;9.17;8.47;;;12.60;99.90;;;;;;10349792;28;20628;-80
2023/05/01 02:38:57;;;;;;;8.73;8.03;;;12.60;99.60;;;;;;10386101;28;20238;-83
2023/05/01 02:44:03;;;;;;;9.10;8.27;;;12.60;99.70;;;;;;10390181;28;20219;-83
2023/05/01 02:49:06;;;;;;;9.13;8.43;;;12.60;99.90;;;;;;10366457;28;20605;-81
2023/05/01 02:54:10;;;;;;;8.50;7.80;;;12.60;99.90;;;;;;10402173;28;20244;-82
2023/05/01 02:59:12;;;;;;;8.87;8.17;;;12.60;99.70;;;;;;10359139;28;20243;-80
2023/05/01 03:04:14;;;;;;;9.03;8.43;;;12.60;99.80;;;;;;10365262;28;20210;-80
2023/05/01 03:09:18;;;;;;;9.23;8.47;;;12.60;99.90;;;;;;10380834;28;20637;-82
2023/05/01 03:14:20;;;;;;;9.87;8.97;;;12.60;99.90;;;;;;10371199;28;20222;-81
2023/05/01 03:19:22;;;;;;;9.10;8.50;;;12.60;99.90;;;;;;10381384;28;20225;-82
2023/05/01 03:24:27;;;;;;;8.90;8.20;;;12.60;99.90;;;;;;10375750;23;20234;-79
2023/05/01 03:29:29;;;;;;;9.60;8.90;;;12.60;99.90;;;;;;10402061;28;20329;-79
2023/05/01 03:34:33;;;;;;;9.20;8.50;;;12.60;99.90;;;;;;10385453;28;20747;-79
2023/05/01 03:39:36;;;;;;;10.07;9.27;;;12.70;99.90;;;;;;10378501;28;20264;-78
2023/05/01 03:44:53;;;;;;;9.40;8.60;;;12.70;99.90;;;;;;10384197;28;20216;-78
2023/05/01 03:49:55;;;;;;;9.70;9.00;;;12.70;99.90;;;;;;10400306;28;20240;-79
2023/05/01 03:54:59;;;;;;;9.60;8.80;;;12.70;99.90;;;;;;10348094;28;20212;-78
2023/05/01 04:00:10;;;;;;;9.73;8.83;;;12.70;99.90;;;;;;10385785;28;20206;-79
2023/05/01 04:05:20;;;;;;;9.37;8.57;;;12.70;99.90;;;;;;10415501;28;20218;-78
2023/05/01 04:10:28;;;;;;;10.20;9.50;;;12.70;99.90;;;;;;10405061;28;20196;-78
2023/05/01 04:15:38;;;;;;;10.50;9.70;;;12.70;99.90;;;;;;10371680;28;20219;-78
2023/05/01 04:20:40;;;;;;;9.73;8.90;;;12.70;99.90;;;;;;10356576;28;20212;-78
2023/05/01 04:25:44;;;;;;;9.87;9.07;;;12.70;99.90;;;;;;10358225;28;20218;-78
2023/05/01 04:30:51;;;;;;;10.17;9.07;;;12.70;99.90;;;;;;10374838;28;20218;-79
2023/05/01 04:35:53;;;;;;;9.83;8.90;;;12.80;99.90;;;;;;10361057;28;20725;-79
2023/05/01 04:40:57;;;;;;;9.93;9.13;;;12.80;99.90;;;;;;10400643;28;20314;-78
2023/05/01 04:45:59;;;;;;;10.13;9.33;;;12.80;99.90;;;;;;10391550;28;20225;-79
2023/05/01 04:51:02;;;;;;;9.80;9.00;;;12.80;99.90;;;;;;10400198;28;20191;-79
2023/05/01 04:56:10;;;;;;;9.77;8.97;;;12.90;99.90;;;;;;10368625;28;20218;-80
2023/05/01 05:01:12;;;;;;;9.70;8.90;;;12.90;99.90;;;;;;10389157;28;20588;-80
2023/05/01 05:06:15;;;;;;;9.37;8.67;;;12.90;99.90;;;;;;10401224;28;20211;-80
2023/05/01 05:11:18;;;;;;;10.13;9.33;;;12.90;99.90;;;;;;10350290;28;20199;-80
2023/05/01 05:16:39;;;;;;;10.77;9.93;;;13.00;99.90;;;;;;10351428;28;20222;-80
2023/05/01 05:21:43;;;;;;;11.10;10.10;;;13.00;99.90;;;;;;10370475;28;20214;-80
2023/05/01 05:26:47;;;;;;;11.23;10.30;;;13.00;99.90;;;;;;10399502;28;20654;-80
2023/05/01 05:31:50;;;;;;;10.97;9.97;;;13.10;99.90;;;;;;10368708;28;20688;-80
2023/05/01 05:36:53;;;;;;;10.80;10.00;;;13.10;99.90;;;;;;10397369;28;20215;-80
2023/05/01 05:42:00;;;;;;;13.00;11.70;;;13.10;99.90;;;;;;10384097;28;20220;-78
2023/05/01 05:47:03;;;;;;;13.47;12.17;;;13.20;99.90;;;;;;10381166;28;20670;-79
2023/05/01 05:52:09;;;;;;;11.73;10.83;;;13.20;99.90;;;;;;10397034;28;20225;-79
2023/05/01 05:57:13;;;;;;;10.63;9.87;;;13.20;99.90;;;;;;10378460;28;20234;-80
2023/05/01 06:02:20;;;;;;;11.17;10.17;;;13.20;99.90;;;;;;10387357;28;20863;-80
2023/05/01 06:07:24;;;;;;;11.43;10.57;;;13.20;99.90;;;;;;10427109;28;20219;-81
2023/05/01 06:12:28;;;;;;;10.90;10.10;;;13.20;99.90;;;;;;10399940;28;20282;-81
2023/05/01 06:17:31;;;;;;;11.60;10.60;;;13.20;99.90;;;;;;10382893;28;20219;-81
2023/05/01 06:22:33;;;;;;;10.77;9.87;;;13.20;99.90;;;;;;10394297;28;20229;-80
2023/05/01 06:27:45;;;;;;;11.00;10.13;;;13.30;99.90;;;;;;10408492;28;20225;-81
2023/05/01 06:32:48;;;;;;;11.40;10.50;;;13.30;99.90;;;;;;10375957;28;20542;-79
2023/05/01 06:37:51;;;;;;;11.60;10.70;;;13.40;99.90;;;;;;10396498;28;20293;-79
2023/05/01 06:42:54;;;;;;;13.27;12.17;;;13.50;99.90;;;;;;10410297;28;20222;-79
2023/05/01 06:48:02;;;;;;;11.37;10.47;;;13.60;99.90;;;;;;10376497;28;20210;-80
2023/05/01 06:53:05;;;;;;;11.23;10.43;;;13.70;99.90;;;;;;10411820;28;20667;-80
2023/05/01 06:58:08;;;;;;;8.40;7.90;;;13.80;99.90;;;;;;10399036;28;20565;-80
2023/05/01 07:03:10;;;;;;;9.40;8.63;;;13.80;99.90;;;;;;10375790;28;20659;-79
2023/05/01 07:08:13;;;;;;;8.53;7.73;;;13.80;99.60;;;;;;10393430;28;20652;-80
2023/05/01 07:13:17;;;;;;;9.57;8.77;;;13.80;99.90;;;;;;10408831;28;20194;-81
2023/05/01 07:18:19;;;;;;;8.37;7.87;;;13.80;99.50;;;;;;10389695;28;20211;-81
2023/05/01 07:23:22;;;;;;;9.30;8.70;;;13.90;99.90;;;;;;10411146;28;20198;-80
2023/05/01 07:28:25;;;;;;;8.13;7.53;;;13.90;99.90;;;;;;10371332;28;20321;-80
2023/05/01 07:33:28;;;;;;;8.33;7.73;;;14.00;99.90;;;;;;10396611;28;20226;-80
2023/05/01 07:38:30;;;;;;;8.27;7.67;;;14.10;99.70;;;;;;10384029;28;20302;-79
2023/05/01 07:43:33;;;;;;;7.80;7.20;;;14.30;99.30;;;;;;10384946;28;20196;-79
2023/05/01 07:48:36;;;;;;;8.77;8.17;;;14.40;99.60;;;;;;10414437;28;20210;-79
2023/05/01 07:53:41;;;;;;;8.80;8.10;;;14.60;99.90;;;;;;10356090;28;20876;-79
2023/05/01 07:58:44;;;;;;;9.50;8.80;;;14.80;99.90;;;;;;10299239;28;20572;-79
2023/05/01 08:03:46;;;;;;;9.37;8.50;;;15.00;99.90;;;;;;10400039;28;20277;-80
2023/05/01 08:08:49;;;;;;;8.83;8.03;;;15.20;99.80;;;;;;10339245;28;20288;-78
2023/05/01 08:13:52;;;;;;;9.30;8.57;;;15.20;99.50;;;;;;10396914;28;20245;-78
2023/05/01 08:18:54;;;;;;;9.03;8.30;;;15.30;99.70;;;;;;10426826;28;20217;-79
2023/05/01 08:23:56;;;;;;;8.40;7.73;;;15.40;99.50;;;;;;10395270;28;20693;-78
2023/05/01 08:29:00;;;;;;;9.00;8.20;;;15.50;98.80;;;;;;10354306;28;20188;-79
2023/05/01 08:34:02;;;;;;;8.47;7.70;;;15.50;98.50;;;;;;10425554;28;20317;-80
2023/05/01 08:39:04;;;;;;;8.33;7.63;;;15.70;99.30;;;;;;10370164;28;20210;-80
2023/05/01 08:44:09;;;;;;;7.60;7.10;;;15.90;98.40;;;;;;10353182;28;20222;-80
2023/05/01 08:49:16;;;;;;;7.77;7.10;;;16.20;98.60;;;;;;10386951;28;20249;-79
2023/05/01 08:54:20;;;;;;;7.30;6.77;;;16.50;98.00;;;;;;10366635;28;20215;-78
2023/05/01 08:59:27;;;;;;;8.30;7.57;;;16.80;97.30;;;;;;10397621;28;20219;-80
2023/05/01 09:04:31;;;;;;;7.40;6.90;;;17.00;97.80;;;;;;10390652;28;20215;-79
2023/05/01 09:09:34;;;;;;;6.77;6.37;;;17.20;97.80;;;;;;10371481;28;20539;-80
2023/05/01 09:14:38;;;;;;;7.47;6.87;;;17.40;96.70;;;;;;10393228;28;20302;-80
2023/05/01 09:19:40;;;;;;;7.67;7.17;;;17.50;97.50;;;;;;10425325;28;20713;-80
2023/05/01 09:24:42;;;;;;;7.53;6.67;;;17.80;97.60;;;;;;10415804;23;20227;-80
2023/05/01 09:29:47;;;;;;;6.23;5.73;;;18.10;96.80;;;;;;10422710;28;20589;-81
2023/05/01 09:34:50;;;;;;;7.10;6.50;;;18.10;95.90;;;;;;10393216;28;20218;-80
2023/05/01 09:40:05;;;;;;;7.33;6.83;;;18.10;96.30;;;;;;10423202;28;20202;-81
2023/05/01 09:45:14;;;;;;;5.47;5.17;;;18.20;97.00;;;;;;10425613;28;20237;-83
2023/05/01 09:50:29;;;;;;;6.67;6.17;;;18.50;96.40;;;;;;10431812;28;20195;-83
2023/05/01 09:55:31;;;;;;;9.03;8.30;;;18.80;95.80;;;;;;10398753;28;20585;-83
2023/05/01 10:00:47;;;;;;;7.53;7.03;;;19.10;95.30;;;;;;10445200;28;20210;-83
2023/05/01 10:05:49;;;;;;;8.10;7.50;;;19.30;95.80;;;;;;10369551;28;20210;-79
2023/05/01 10:11:03;;;;;;;8.10;7.40;;;19.40;95.50;;;;;;10355090;28;20222;-83
2023/05/01 10:16:09;;;;;;;7.90;7.30;;;19.30;94.70;;;;;;10315718;28;20283;-83
2023/05/01 10:21:15;;;;;;;8.83;8.13;;;19.00;94.90;;;;;;10411488;28;20221;-82
2023/05/01 10:26:18;;;;;;;9.67;8.97;;;18.80;95.70;;;;;;10395281;28;20226;-82
2023/05/01 10:31:21;;;;;;;9.40;8.70;;;18.60;94.80;;;;;;10410177;28;20195;-83
2023/05/01 10:36:27;;;;;;;8.00;7.50;;;18.60;95.20;;;;;;10386251;28;20589;-80
2023/05/01 10:42:02;;;;;;;8.87;8.17;;;18.60;95.80;;;;;;10400315;28;20312;-82
2023/05/01 10:47:42;;;;;;;8.17;7.57;;;18.80;95.30;;;;;;10398781;28;20293;-80
2023/05/01 10:53:19;;;;;;;8.13;7.47;;;18.80;94.90;;;;;;10416317;28;20190;-81
2023/05/01 10:58:55;;;;;;;9.27;8.47;;;18.90;94.80;;;;;;10416141;28;20223;-79
2023/05/01 11:03:58;;;;;;;8.70;7.90;;;18.90;93.20;;;;;;10416426;28;20198;-82
2023/05/01 11:09:03;;;;;;;8.97;8.30;;;18.90;94.80;;;;;;10407445;28;20203;-83
2023/05/01 11:14:07;;;;;;;9.00;8.30;;;18.90;95.20;;;;;;10407729;28;20560;-83
2023/05/01 11:19:10;;;;;;;9.13;8.27;;;18.90;95.40;;;;;;10392048;28;20271;-83
2023/05/01 11:24:16;;;;;;;8.43;7.63;;;18.80;94.90;;;;;;10394213;28;20202;-83
2023/05/01 11:29:18;;;;;;;8.73;8.03;;;18.70;94.90;;;;;;10410901;28;20195;-83
2023/05/01 11:34:21;;;;;;;8.60;7.90;;;18.60;94.70;;;;;;10415287;28;20226;-81
2023/05/01 11:39:24;;;;;;;8.60;8.00;;;18.60;95.10;;;;;;10393288;28;20692;-83
2023/05/01 11:44:27;;;;;;;8.30;7.70;;;18.60;95.20;;;;;;10391829;28;20214;-83
2023/05/01 11:49:29;;;;;;;9.37;8.67;;;18.60;95.00;;;;;;10407340;28;20545;-83
2023/05/01 11:54:47;;;;;;;8.23;7.43;;;18.60;93.00;;;;;;10427806;28;20250;-83
2023/05/01 11:59:49;;;;;;;9.00;7.80;;;18.40;94.80;;;;;;10349536;28;20217;-81
2023/05/01 12:04:52;;;;;;;8.90;8.30;;;18.40;94.30;;;;;;10407943;28;20237;-81
2023/05/01 12:09:56;;;;;;;9.30;8.60;;;18.40;95.30;;;;;;10408035;28;20190;-82
2023/05/01 12:14:58;;;;;;;7.33;6.73;;;18.50;93.80;;;;;;10407702;28;20238;-83
2023/05/01 12:20:01;;;;;;;9.27;8.57;;;18.60;94.90;;;;;;10410764;28;20221;-83
2023/05/01 12:25:05;;;;;;;8.63;7.30;;;18.70;95.20;;;;;;10390486;28;20685;-83
2023/05/01 12:30:08;;;;;;;8.83;8.10;;;18.70;93.70;;;;;;10391201;28;20186;-83
2023/05/01 12:35:15;;;;;;;8.80;8.10;;;18.60;94.00;;;;;;10419686;28;20214;-81
2023/05/01 12:40:21;;;;;;;8.33;7.73;;;18.60;95.20;;;;;;10408397;28;20217;-83
2023/05/01 12:45:24;;;;;;;10.67;9.87;;;18.60;94.30;;;;;;10392377;28;20594;-83
2023/05/01 12:50:26;;;;;;;8.90;8.20;;;18.60;92.70;;;;;;10417842;28;20528;-82
2023/05/01 12:55:30;;;;;;;9.23;8.53;;;18.70;94.40;;;;;;10392924;28;20277;-79
2023/05/01 13:00:42;;;;;;;8.63;8.00;;;18.70;93.20;;;;;;10386619;28;20570;-82
2023/05/01 13:05:56;;;;;;;9.10;8.30;;;18.70;93.90;;;;;;10409273;28;20223;-82
2023/05/01 13:11:01;;;;;;;8.87;8.10;;;18.70;95.00;;;;;;10390070;28;20198;-82
2023/05/01 13:16:05;;;;;;;8.30;7.60;;;18.50;94.60;;;;;;10389127;28;20227;-82
2023/05/01 13:21:09;;;;;;;9.30;8.60;;;18.40;94.30;;;;;;10340572;28;20527;-81
2023/05/01 13:26:15;;;;;;;10.40;9.50;;;18.20;96.00;;;;;;10355406;28;20227;-82
2023/05/01 13:31:17;;;;;;;10.50;9.40;;;18.10;95.40;;;;;;10363551;28;20295;-83
2023/05/01 13:36:19;;;;;;;8.93;8.30;;;17.90;95.70;;;;;;10407321;28;20218;-82
2023/05/01 13:41:24;;;;;;;9.57;8.87;;;17.70;96.20;;;;;;10406843;28;20214;-83
2023/05/01 13:46:27;;;;;;;11.70;10.43;;;17.50;97.40;;;;;;10385977;28;20307;-83
2023/05/01 13:51:35;;;;;;;9.83;8.93;;;17.40;97.10;;;;;;10373982;28;20202;-82
2023/05/01 13:56:40;;;;;;;9.03;8.33;;;17.30;97.70;;;;;;10388796;28;20257;-84
2023/05/01 14:01:44;;;;;;;10.40;9.60;;;17.20;97.90;;;;;;10404855;28;20218;-82
2023/05/01 14:06:48;;;;;;;8.90;8.10;;;17.20;98.60;;;;;;10408503;28;20218;-82
2023/05/01 14:11:51;;;;;;;11.60;10.50;;;17.20;98.40;;;;;;10391518;28;20190;-83
2023/05/01 14:16:54;;;;;;;10.30;9.50;;;17.20;98.40;;;;;;10409910;28;20243;-82
2023/05/01 14:21:56;;;;;;;9.60;8.70;;;17.10;98.30;;;;;;10356787;28;20237;-80
2023/05/01 14:27:00;;;;;;;7.57;6.97;;;17.20;98.60;;;;;;10364977;28;20614;-81
2023/05/01 14:32:04;;;;;;;6.40;5.90;;;17.30;97.70;;;;;;10372111;28;20196;-80
2023/05/01 14:37:06;;;;;;;6.97;6.37;;;17.50;98.00;;;;;;10397655;28;20729;-80
2023/05/01 14:42:10;;;;;;;8.80;8.00;;;17.60;97.50;;;;;;10392713;28;20305;-81
2023/05/01 14:47:16;;;;;;;9.60;8.80;;;17.80;96.40;;;;;;10406736;28;20272;-81
2023/05/01 14:52:21;;;;;;;8.63;8.03;;;17.90;95.90;;;;;;10374124;28;20215;-81
2023/05/01 14:57:24;;;;;;;7.20;6.70;;;17.90;96.50;;;;;;10357389;28;20223;-81
2023/05/01 15:02:27;;;;;;;8.40;7.70;;;18.00;97.60;;;;;;10392808;28;20733;-82
2023/05/01 15:07:29;;;;;;;6.80;6.30;;;18.00;96.70;;;;;;10371445;28;20242;-82
2023/05/01 15:12:33;;;;;;;8.00;7.30;;;17.90;96.90;;;;;;10376118;28;20191;-81
2023/05/01 15:17:35;;;;;;;6.50;6.10;;;17.80;97.50;;;;;;10389950;28;20311;-82
2023/05/01 15:22:37;;;;;;;6.77;6.30;;;17.60;97.70;;;;;;10402614;28;20226;-82
2023/05/01 15:27:41;;;;;;;8.03;7.23;;;17.50;99.00;;;;;;10460130;23;20228;-78
2023/05/01 15:32:43;;;;;;;14.23;12.90;;;17.30;99.60;;;;;;10429214;28;20194;-77
2023/05/01 15:37:46;;;;;;;13.53;12.10;;;17.10;99.90;;;;;;10465350;28;20222;-77
2023/05/01 15:42:50;;;;;;;11.10;10.00;;;16.90;99.90;;;;;;10446701;28;20210;-78
2023/05/01 15:47:52;;;;;;;10.40;9.50;;;16.60;99.90;;;;;;10448653;28;20613;-79
2023/05/01 15:52:55;;;;;;;8.57;7.90;;;16.20;99.90;;;;;;10466498;28;20345;-79
2023/05/01 15:57:58;;;;;;;8.90;8.20;;;15.90;99.90;;;;;;10418376;28;20222;-78
2023/05/01 16:03:01;;;;;;;9.07;8.37;;;15.70;99.90;;;;;;10446594;28;20685;-76
2023/05/01 16:08:06;;;;;;;9.67;8.97;;;15.60;99.90;;;;;;10446747;28;20249;-77
2023/05/01 16:13:10;;;;;;;9.93;9.13;;;15.70;99.90;;;;;;10438063;28;20566;-80
2023/05/01 16:18:19;;;;;;;10.93;10.00;;;15.70;99.90;;;;;;10446890;28;20218;-78
2023/05/01 16:23:21;;;;;;;10.17;9.47;;;15.90;99.90;;;;;;10443596;28;20300;-77
2023/05/01 16:28:25;;;;;;;10.00;9.20;;;15.90;99.90;;;;;;10465674;28;20236;-78
2023/05/01 16:33:28;;;;;;;9.07;8.30;;;16.00;99.90;;;;;;10449396;28;20196;-78
2023/05/01 16:38:31;;;;;;;9.27;8.57;;;16.00;99.90;;;;;;10452922;28;20221;-79
2023/05/01 16:43:36;;;;;;;10.33;9.43;;;15.90;99.90;;;;;;10452742;28;20226;-79
2023/05/01 16:48:39;;;;;;;10.67;9.87;;;15.80;99.90;;;;;;10445762;28;20289;-78
2023/05/01 16:53:41;;;;;;;9.23;8.47;;;15.70;99.90;;;;;;10455138;28;20196;-77
2023/05/01 16:58:45;;;;;;;7.97;7.37;;;15.60;99.90;;;;;;10414980;22;20222;-78
2023/05/01 17:03:47;;;;;;;7.63;7.10;;;15.60;99.90;;;;;;10393382;28;20577;-77
2023/05/01 17:08:49;;;;;;;10.00;9.20;;;15.60;99.90;;;;;;10378648;28;20215;-77
2023/05/01 17:13:53;;;;;;;5.20;4.90;;;15.50;99.90;;;;;;10349924;28;20667;-77
2023/05/01 17:18:55;;;;;;;6.40;6.00;;;15.30;99.90;;;;;;10370749;28;20225;-77
2023/05/01 17:23:57;;;;;;;6.03;5.63;;;15.10;99.90;;;;;;10374191;28;20222;-78
2023/05/01 17:29:02;;;;;;;5.67;5.27;;;14.90;99.90;;;;;;10366703;28;20233;-78
2023/05/01 17:34:04;;;;;;;6.13;5.40;;;14.80;99.90;;;;;;10378484;28;20205;-77
2023/05/01 17:39:06;;;;;;;6.00;5.60;;;14.80;99.90;;;;;;10369810;28;20222;-78
2023/05/01 17:44:10;;;;;;;5.60;5.07;;;14.80;99.90;;;;;;10360250;28;20226;-78
2023/05/01 17:49:13;;;;;;;5.93;5.53;;;14.80;99.90;;;;;;10364601;28;20700;-78
2023/05/01 17:54:16;;;;;;;5.70;5.30;;;14.70;99.90;;;;;;10379244;28;20583;-79
2023/05/01 17:59:19;;;;;;;4.90;4.60;;;14.70;99.90;;;;;;10360735;28;20263;-79
2023/05/01 18:04:22;;;;;;;6.77;6.27;;;14.70;99.90;;;;;;10383644;28;20210;-78
2023/05/01 18:09:25;;;;;;;6.50;6.00;;;14.70;99.90;;;;;;10356498;28;20216;-79
2023/05/01 18:14:29;;;;;;;6.00;5.60;;;14.70;99.90;;;;;;10360025;28;20209;-80
2023/05/01 18:19:33;;;;;;;6.63;6.20;;;14.60;99.90;;;;;;10387618;28;20225;-80
2023/05/01 18:24:36;;;;;;;7.40;6.80;;;14.50;99.90;;;;;;10377272;28;20788;-79
2023/05/01 18:29:39;;;;;;;7.60;7.03;;;14.50;99.90;;;;;;10363903;28;20198;-78
2023/05/01 18:34:42;;;;;;;7.30;6.70;;;14.60;99.90;;;;;;10382441;28;20226;-79
2023/05/01 18:39:45;;;;;;;8.20;7.40;;;14.60;99.90;;;;;;10376707;28;20219;-79
2023/05/01 18:44:49;;;;;;;7.40;6.80;;;14.60;99.90;;;;;;10375867;28;20257;-80
2023/05/01 18:49:51;;;;;;;7.07;6.57;;;14.70;99.90;;;;;;9502708;28;10000884;-79
2023/05/01 18:54:53;;;;;;;8.20;7.60;;;14.50;99.90;;;;;;10385769;28;20691;-78
2023/05/01 19:00:16;;;;;;;9.43;8.53;;;14.50;99.90;;;;;;10370086;28;20198;-79
2023/05/01 19:05:18;;;;;;;7.37;6.87;;;14.40;99.90;;;;;;10361944;28;20598;-79
2023/05/01 19:10:20;;;;;;;7.93;7.33;;;14.40;99.90;;;;;;10383096;28;20195;-79
2023/05/01 19:15:24;;;;;;;7.20;6.70;;;14.40;99.90;;;;;;10383688;28;20339;-79
2023/05/01 19:20:27;;;;;;;7.67;6.97;;;14.50;99.90;;;;;;10361932;28;20230;-78
2023/05/01 19:25:31;;;;;;;7.40;6.80;;;14.40;99.90;;;;;;10374269;28;20219;-78
2023/05/01 19:30:34;;;;;;;8.20;7.40;;;14.50;99.90;;;;;;10396278;28;20199;-78
2023/05/01 19:35:37;;;;;;;8.03;7.43;;;14.50;99.90;;;;;;10337258;28;20760;-78
2023/05/01 19:40:41;;;;;;;8.40;7.77;;;14.40;99.90;;;;;;10398472;28;20197;-78
2023/05/01 19:45:44;;;;;;;8.43;7.73;;;14.50;99.90;;;;;;10346099;28;20222;-79
2023/05/01 19:50:49;;;;;;;7.60;7.00;;;14.50;99.90;;;;;;10400662;28;20452;-79
2023/05/01 19:55:51;;;;;;;6.50;6.00;;;14.50;99.90;;;;;;10399439;28;20230;-79
2023/05/01 20:00:57;;;;;;;6.50;5.90;;;14.50;99.90;;;;;;10404010;28;20202;-79
2023/05/01 20:05:59;;;;;;;6.37;5.90;;;14.50;99.90;;;;;;10359446;28;20703;-78
2023/05/01 20:11:02;;;;;;;6.37;5.87;;;14.50;99.90;;;;;;10390889;28;20193;-80
2023/05/01 20:16:07;;;;;;;6.97;6.27;;;14.50;99.90;;;;;;10360072;28;20225;-78
2023/05/01 20:21:09;;;;;;;7.77;7.17;;;14.50;99.90;;;;;;10365103;28;20207;-77
2023/05/01 20:26:11;;;;;;;9.70;9.00;;;14.40;99.90;;;;;;10361559;28;20246;-78
2023/05/01 20:31:15;;;;;;;9.13;8.43;;;14.50;99.90;;;;;;10376825;28;20199;-80
2023/05/01 20:36:17;;;;;;;7.50;7.00;;;14.40;99.90;;;;;;10364319;28;20302;-79
2023/05/01 20:41:22;;;;;;;10.20;9.30;;;14.40;99.90;;;;;;10406758;28;20211;-80
2023/05/01 20:46:27;;;;;;;7.63;7.07;;;14.30;99.90;;;;;;10386543;28;20230;-78
2023/05/01 20:51:32;;;;;;;7.33;6.83;;;14.30;99.90;;;;;;10368939;28;20198;-79
2023/05/01 20:56:35;;;;;;;6.63;6.13;;;14.30;99.90;;;;;;10370950;28;20219;-80
2023/05/01 21:01:42;;;;;;;9.33;8.27;;;14.20;99.90;;;;;;10375362;28;20254;-79
2023/05/01 21:06:55;;;;;;;8.33;7.73;;;14.00;99.90;;;;;;10333309;28;20233;-78
2023/05/01 21:11:58;;;;;;;7.93;7.20;;;13.90;99.90;;;;;;10396457;28;20191;-78
2023/05/01 21:17:01;;;;;;;7.37;6.83;;;13.80;99.90;;;;;;10379852;28;20278;-79
2023/05/01 21:22:03;;;;;;;6.57;6.17;;;13.70;99.90;;;;;;10399983;28;20215;-79
2023/05/01 21:27:06;;;;;;;7.20;6.57;;;13.60;99.90;;;;;;10380647;28;20218;-79
2023/05/01 21:32:16;;;;;;;8.20;7.60;;;13.50;99.90;;;;;;10411722;28;20724;-81
2023/05/01 21:37:18;;;;;;;7.97;7.37;;;13.40;99.90;;;;;;10365903;28;20277;-81
2023/05/01 21:42:20;;;;;;;7.83;7.23;;;13.30;99.90;;;;;;10410370;28;20297;-79
2023/05/01 21:47:26;;;;;;;7.70;7.10;;;13.20;99.90;;;;;;10363370;28;20224;-81
2023/05/01 21:52:29;;;;;;;8.57;7.70;;;13.20;99.90;;;;;;10374863;28;20298;-80
2023/05/01 21:57:31;;;;;;;7.43;6.93;;;13.10;99.90;;;;;;10373999;28;20235;-81
2023/05/01 22:02:40;;;;;;;6.97;6.47;;;13.00;99.90;;;;;;10381901;28;20218;-81
2023/05/01 22:07:43;;;;;;;7.33;6.80;;;12.90;99.90;;;;;;10371006;28;20676;-81
2023/05/01 22:12:47;;;;;;;6.60;6.10;;;12.80;99.90;;;;;;10372455;28;20252;-79
2023/05/01 22:17:51;;;;;;;6.50;6.00;;;12.80;99.90;;;;;;10353135;28;20219;-80
2023/05/01 22:22:53;;;;;;;6.80;5.60;;;12.70;99.90;;;;;;10375806;28;20198;-80
2023/05/01 22:27:55;;;;;;;6.87;6.37;;;12.70;99.90;;;;;;10346592;28;20305;-80
2023/05/01 22:32:58;;;;;;;7.63;7.03;;;12.60;99.90;;;;;;10391608;28;20273;-81
2023/05/01 22:38:00;;;;;;;6.97;6.47;;;12.60;99.90;;;;;;10397440;28;20225;-80
2023/05/01 22:43:04;;;;;;;7.90;7.20;;;12.60;99.90;;;;;;10399597;28;20249;-80
2023/05/01 22:48:07;;;;;;;7.43;6.90;;;12.60;99.90;;;;;;10382366;28;20281;-81
2023/05/01 22:53:10;;;;;;;7.90;7.30;;;12.60;99.90;;;;;;10373389;28;20191;-81
2023/05/01 22:58:12;;;;;;;6.87;6.27;;;12.60;99.90;;;;;;10384187;28;20235;-80
2023/05/01 23:03:15;;;;;;;7.17;6.67;;;12.60;99.90;;;;;;10371553;28;20237;-80
2023/05/01 23:08:17;;;;;;;6.83;6.23;;;12.60;99.90;;;;;;10344647;28;20223;-80
2023/05/01 23:13:22;;;;;;;5.80;5.40;;;12.50;99.90;;;;;;10386839;28;20554;-78
2023/05/01 23:18:32;;;;;;;6.80;6.20;;;12.50;99.90;;;;;;10361036;28;20219;-78
2023/05/01 23:23:36;;;;;;;6.67;6.23;;;12.50;99.90;;;;;;10404371;28;20222;-79
2023/05/01 23:28:42;;;;;;;6.83;6.33;;;12.50;99.90;;;;;;10378762;28;20242;-79
2023/05/01 23:33:45;;;;;;;6.80;6.20;;;12.40;99.90;;;;;;10384032;28;20191;-78
2023/05/01 23:38:47;;;;;;;7.07;6.47;;;12.40;99.90;;;;;;10376256;28;20223;-78
2023/05/01 23:43:49;;;;;;;6.57;6.17;;;12.40;99.90;;;;;;10400208;28;20310;-79
2023/05/01 23:48:53;;;;;;;7.47;6.40;;;12.40;99.90;;;;;;10373017;28;20226;-78
2023/05/01 23:53:55;;;;;;;6.70;6.17;;;12.40;99.90;;;;;;10358196;28;20651;-80
2023/05/01 23:58:57;;;;;;;6.83;6.33;;;12.40;99.90;;;;;;10353858;28;20714;-79
